ESNN/SDL METAR and TAF weather

Enter ICAO airport designator
Station Type Date Time Source
ESNN METAR 2024/04/18 06:50 UTC NOAA

ESNN 180650Z 31006KT 280V360 CAVOK M00/M05 Q1016


Station Type Date Time Source
ESNN Decoded METAR 2024/04/18 06:50 UTC NOAA

Sundsvall-Harnosand Flygplats, Sweden (ESNN) 62-32N 017-27E 10M
Apr 18, 2024 - 02:50 AM EDT / 2024.04.18 0650 UTC
Wind: from the NW (310 degrees) at 7 MPH (6 KT) (direction variable):0
Visibility: greater than 7 mile(s):0
Temperature: 32 F (0 C)
Windchill: 24 F (-4 C):1
Dew Point: 23 F (-5 C)
Relative Humidity: 69%
Pressure (altimeter): 30.00 in. Hg (1016 hPa)
ob: ESNN 180650Z 31006KT 280V360 CAVOK M00/M05 Q1016
cycle: 7

Station Type Date Time Source
ESNN TAF 2016/05/29 09:33 UTC NOAA